createdAt,value
2022-10-14T00:00:16.579Z,0
2022-10-14T00:01:16.359Z,0
2022-10-14T00:02:16.453Z,0
2022-10-14T00:03:16.365Z,0
2022-10-14T00:05:15.914Z,0
2022-10-14T00:06:16.684Z,0
2022-10-14T00:07:16.185Z,0
2022-10-14T00:08:16.203Z,0
2022-10-14T00:09:16.491Z,0
2022-10-14T00:10:16.768Z,0
2022-10-14T00:11:16.799Z,0
2022-10-14T00:12:16.311Z,0
2022-10-14T00:13:16.593Z,0
2022-10-14T00:14:16.449Z,0
2022-10-14T00:15:16.851Z,0
2022-10-14T00:16:16.622Z,0
2022-10-14T00:17:16.928Z,0
2022-10-14T00:18:16.402Z,0
2022-10-14T00:19:16.928Z,0
2022-10-14T00:20:16.965Z,0
2022-10-14T00:21:16.978Z,0
2022-10-14T00:22:17.978Z,0
2022-10-14T00:23:16.748Z,0
2022-10-14T00:24:16.784Z,0
2022-10-14T00:25:16.532Z,0
2022-10-14T00:26:17.063Z,0
2022-10-14T00:27:16.860Z,0
2022-10-14T00:28:16.975Z,0
2022-10-14T00:29:16.881Z,0
2022-10-14T00:30:17.133Z,0
2022-10-14T00:31:16.643Z,0
2022-10-14T00:32:16.924Z,0
2022-10-14T00:33:17.239Z,0
2022-10-14T00:34:16.694Z,0
2022-10-14T00:35:17.238Z,0
2022-10-14T00:36:17.007Z,0
2022-10-14T00:37:17.023Z,0
2022-10-14T00:38:17.040Z,0
2022-10-14T00:39:17.310Z,0
2022-10-14T00:40:17.067Z,0
2022-10-14T00:41:16.853Z,0
2022-10-14T00:42:17.120Z,0
2022-10-14T00:43:17.439Z,0
2022-10-14T00:44:17.425Z,0
2022-10-14T00:45:17.194Z,0
2022-10-14T00:46:17.188Z,0
2022-10-14T00:47:17.207Z,0
2022-10-14T00:48:16.959Z,0
2022-10-14T00:49:17.280Z,0
2022-10-14T00:50:17.271Z,0
2022-10-14T00:51:17.026Z,0
2022-10-14T00:52:17.441Z,0
2022-10-14T00:53:17.731Z,0
2022-10-14T00:54:17.069Z,0
2022-10-14T00:55:17.094Z,0
2022-10-14T00:56:17.665Z,0
2022-10-14T00:57:17.537Z,0
2022-10-14T00:58:17.466Z,0
2022-10-14T00:59:17.733Z,0
2022-10-14T01:00:17.471Z,0
2022-10-14T01:01:17.834Z,0
2022-10-14T01:02:17.483Z,0
2022-10-14T01:03:17.262Z,0
2022-10-14T01:04:17.274Z,0
2022-10-14T01:05:17.597Z,0
2022-10-14T01:06:17.556Z,0
2022-10-14T01:07:17.591Z,0
2022-10-14T01:08:17.839Z,0
2022-10-14T01:09:17.633Z,0
2022-10-14T01:10:17.892Z,0
2022-10-14T01:11:17.393Z,0
2022-10-14T01:12:35.368Z,0
2022-10-14T01:13:17.710Z,0
2022-10-14T01:14:17.714Z,0
2022-10-14T01:15:17.999Z,0
2022-10-14T01:16:18.027Z,0
2022-10-14T01:17:18.045Z,0
2022-10-14T01:18:18.040Z,0
2022-10-14T01:19:17.799Z,0
2022-10-14T01:20:17.561Z,0
2022-10-14T01:21:18.110Z,0
2022-10-14T01:22:23.993Z,0
2022-10-14T01:23:17.974Z,0
2022-10-14T01:24:17.885Z,0
2022-10-14T01:25:17.915Z,0
2022-10-14T01:26:17.937Z,0
2022-10-14T01:27:17.678Z,0
2022-10-14T01:28:18.075Z,0
2022-10-14T01:29:17.725Z,0
2022-10-14T01:30:18.269Z,0
2022-10-14T01:31:18.051Z,0
2022-10-14T01:32:18.058Z,0
2022-10-14T01:33:18.348Z,0
2022-10-14T01:34:17.818Z,0
2022-10-14T01:35:18.098Z,0
2022-10-14T01:36:18.378Z,0
2022-10-14T01:37:18.158Z,0
2022-10-14T01:38:18.155Z,0
2022-10-14T01:39:18.419Z,0
2022-10-14T01:40:17.925Z,0
2022-10-14T01:41:18.454Z,0
2022-10-14T01:42:18.392Z,0
2022-10-14T01:43:17.990Z,0
2022-10-14T01:44:18.264Z,0
2022-10-14T01:45:18.531Z,0
2022-10-14T01:46:18.072Z,0
2022-10-14T01:47:18.607Z,0
2022-10-14T01:48:18.622Z,0
2022-10-14T01:49:18.644Z,0
2022-10-14T01:50:18.126Z,0
2022-10-14T01:51:18.395Z,0
2022-10-14T01:52:18.565Z,0
2022-10-14T01:53:18.459Z,0
2022-10-14T01:54:18.198Z,0
2022-10-14T01:55:18.257Z,0
2022-10-14T01:56:18.238Z,0
2022-10-14T01:57:18.761Z,0
2022-10-14T01:58:18.264Z,0
2022-10-14T01:59:18.802Z,0
2022-10-14T02:00:18.829Z,0
2022-10-14T02:01:18.951Z,0
2022-10-14T02:02:18.536Z,0
2022-10-14T02:03:18.668Z,0
2022-10-14T02:04:18.924Z,0
2022-10-14T02:05:18.978Z,0
2022-10-14T02:06:18.689Z,0
2022-10-14T02:07:18.960Z,0
2022-10-14T02:08:18.713Z,0
2022-10-14T02:09:18.504Z,0
2022-10-14T02:10:19.018Z,0
2022-10-14T02:11:18.519Z,0
2022-10-14T02:12:19.081Z,0
2022-10-14T02:13:18.811Z,0
2022-10-14T02:14:18.313Z,0
2022-10-14T02:15:19.120Z,0
2022-10-14T02:16:18.875Z,0
2022-10-14T02:17:19.152Z,0
2022-10-14T02:18:18.912Z,0
2022-10-14T02:19:19.209Z,0
2022-10-14T02:20:19.228Z,0
2022-10-14T02:21:19.254Z,0
2022-10-14T02:22:19.575Z,0
2022-10-14T02:23:18.548Z,0
2022-10-14T02:24:18.756Z,0
2022-10-14T02:25:19.329Z,0
2022-10-14T02:26:19.305Z,0
2022-10-14T02:27:19.335Z,0
2022-10-14T02:28:19.599Z,0
2022-10-14T02:29:19.371Z,0
2022-10-14T02:30:18.620Z,0
2022-10-14T02:31:19.152Z,0
2022-10-14T02:32:19.608Z,0
2022-10-14T02:33:19.462Z,0
2022-10-14T02:34:18.954Z,0
2022-10-14T02:35:19.249Z,0
2022-10-14T02:36:19.531Z,0
2022-10-14T02:37:19.552Z,0
2022-10-14T02:38:19.309Z,0
2022-10-14T02:39:19.307Z,0
2022-10-14T02:40:19.057Z,0
2022-10-14T02:41:19.710Z,0
2022-10-14T02:42:19.921Z,0
2022-10-14T02:43:19.373Z,0
2022-10-14T02:44:19.403Z,0
2022-10-14T02:45:19.411Z,0
2022-10-14T02:46:19.435Z,0
2022-10-14T02:47:19.453Z,0
2022-10-14T02:48:19.479Z,0
2022-10-14T02:49:19.901Z,0
2022-10-14T02:50:19.025Z,0
2022-10-14T02:51:19.296Z,0
2022-10-14T02:52:20.243Z,0
2022-10-14T02:53:19.598Z,0
2022-10-14T02:54:19.618Z,0
2022-10-14T02:55:19.865Z,0
2022-10-14T02:56:19.622Z,0
2022-10-14T02:57:20.073Z,0
2022-10-14T02:58:19.802Z,0
2022-10-14T02:59:20.031Z,0
2022-10-14T03:00:19.590Z,0
2022-10-14T03:01:20.215Z,0
2022-10-14T03:02:20.123Z,0
2022-10-14T03:03:19.643Z,0
2022-10-14T03:04:19.876Z,0
2022-10-14T03:05:20.034Z,0
2022-10-14T03:06:20.073Z,0
2022-10-14T03:07:20.103Z,0
2022-10-14T03:08:20.072Z,0
2022-10-14T03:09:20.132Z,0
2022-10-14T03:10:19.622Z,0
2022-10-14T03:11:19.637Z,0
2022-10-14T03:12:20.530Z,0
2022-10-14T03:13:20.039Z,0
2022-10-14T03:14:20.205Z,0
2022-10-14T03:15:20.230Z,0
2022-10-14T03:16:20.096Z,0
2022-10-14T03:17:20.121Z,0
2022-10-14T03:18:20.072Z,0
2022-10-14T03:19:20.088Z,0
2022-10-14T03:20:19.806Z,0
2022-10-14T03:21:19.828Z,0
2022-10-14T03:22:20.365Z,0
2022-10-14T03:23:20.599Z,0
2022-10-14T03:24:20.158Z,0
2022-10-14T03:25:20.421Z,0
2022-10-14T03:26:21.266Z,0
2022-10-14T03:27:19.944Z,0
2022-10-14T03:28:20.237Z,0
2022-10-14T03:29:20.496Z,0
2022-10-14T03:30:20.253Z,0
2022-10-14T03:31:20.270Z,0
2022-10-14T03:32:20.594Z,0
2022-10-14T03:33:31.905Z,0
2022-10-14T03:34:20.585Z,0
2022-10-14T03:35:20.141Z,0
2022-10-14T03:36:20.351Z,0
2022-10-14T03:37:20.380Z,0
2022-10-14T03:38:20.653Z,0
2022-10-14T03:39:20.704Z,0
2022-10-14T03:40:20.451Z,0
2022-10-14T03:41:20.481Z,0
2022-10-14T03:42:20.907Z,0
2022-10-14T03:43:20.239Z,0
2022-10-14T03:44:20.506Z,0
2022-10-14T03:45:20.541Z,0
2022-10-14T03:46:20.786Z,0
2022-10-14T03:47:20.817Z,0
2022-10-14T03:48:20.844Z,0
2022-10-14T03:49:20.857Z,0
2022-10-14T03:50:20.714Z,0
2022-10-14T03:51:20.633Z,0
2022-10-14T03:52:21.208Z,0
2022-10-14T03:53:20.672Z,0
2022-10-14T03:54:20.428Z,0
2022-10-14T03:55:20.512Z,0
2022-10-14T03:56:20.753Z,0
2022-10-14T03:57:20.774Z,0
2022-10-14T03:58:20.765Z,0
2022-10-14T03:59:20.790Z,0
2022-10-14T04:00:21.097Z,0
2022-10-14T04:01:20.972Z,0
2022-10-14T04:02:21.611Z,0
2022-10-14T04:03:20.613Z,0
2022-10-14T04:04:21.158Z,0
2022-10-14T04:05:20.904Z,0
2022-10-14T04:06:21.174Z,0
2022-10-14T04:07:20.680Z,0
2022-10-14T04:08:20.956Z,0
2022-10-14T04:09:21.241Z,0
2022-10-14T04:10:20.997Z,0
2022-10-14T04:11:21.294Z,0
2022-10-14T04:12:21.329Z,0
2022-10-14T04:13:20.812Z,0
2022-10-14T04:14:21.073Z,0
2022-10-14T04:15:21.090Z,0
2022-10-14T04:16:20.855Z,0
2022-10-14T04:17:21.154Z,0
2022-10-14T04:18:21.394Z,0
2022-10-14T04:19:21.164Z,0
2022-10-14T04:20:21.171Z,0
2022-10-14T04:21:21.194Z,0
2022-10-14T04:22:22.126Z,0
2022-10-14T04:23:21.344Z,0
2022-10-14T04:24:21.517Z,0
2022-10-14T04:25:20.778Z,0
2022-10-14T04:26:21.320Z,0
2022-10-14T04:27:21.335Z,0
2022-10-14T04:28:21.590Z,0
2022-10-14T04:29:21.633Z,0
2022-10-14T04:30:21.367Z,0
2022-10-14T04:31:21.382Z,0
2022-10-14T04:32:22.643Z,0
2022-10-14T04:33:21.716Z,0
2022-10-14T04:34:21.434Z,0
2022-10-14T04:35:21.729Z,0
2022-10-14T04:36:21.226Z,0
2022-10-14T04:37:21.739Z,0
2022-10-14T04:38:21.266Z,0
2022-10-14T04:39:21.288Z,0
2022-10-14T04:40:21.560Z,0
2022-10-14T04:41:21.589Z,0
2022-10-14T04:42:22.610Z,0
2022-10-14T04:43:21.910Z,0
2022-10-14T04:44:21.682Z,0
2022-10-14T04:45:21.932Z,0
2022-10-14T04:46:21.682Z,0
2022-10-14T04:47:21.420Z,0
2022-10-14T04:48:21.714Z,0
2022-10-14T04:49:21.746Z,0
2022-10-14T04:50:21.737Z,0
2022-10-14T04:51:21.757Z,0
2022-10-14T04:52:22.277Z,0
2022-10-14T04:53:27.245Z,0
2022-10-14T04:54:21.818Z,0
2022-10-14T04:55:21.826Z,0
2022-10-14T04:56:21.859Z,0
2022-10-14T04:57:21.882Z,0
2022-10-14T04:58:22.155Z,0
2022-10-14T04:59:22.187Z,0
2022-10-14T05:00:22.203Z,0
2022-10-14T05:01:22.136Z,0
2022-10-14T05:02:22.864Z,0
2022-10-14T05:03:22.239Z,0
2022-10-14T05:04:22.011Z,0
2022-10-14T05:05:22.329Z,0
2022-10-14T05:06:22.038Z,0
2022-10-14T05:07:22.056Z,0
2022-10-14T05:08:22.354Z,0
2022-10-14T05:09:22.355Z,0
2022-10-14T05:10:21.601Z,0
2022-10-14T05:11:22.386Z,0
2022-10-14T05:12:22.960Z,0
2022-10-14T05:13:22.436Z,0
2022-10-14T05:14:22.219Z,0
2022-10-14T05:15:21.978Z,0
2022-10-14T05:16:22.255Z,0
2022-10-14T05:17:22.297Z,0
2022-10-14T05:18:22.002Z,0
2022-10-14T05:19:22.283Z,0
2022-10-14T05:20:22.558Z,0
2022-10-14T05:21:22.077Z,0
2022-10-14T05:22:22.868Z,0
2022-10-14T05:23:22.468Z,0
2022-10-14T05:24:22.125Z,0
2022-10-14T05:25:22.695Z,0
2022-10-14T05:26:22.157Z,0
2022-10-14T05:27:22.739Z,0
2022-10-14T05:28:22.888Z,4
2022-10-14T05:29:22.736Z,0
2022-10-14T05:30:22.484Z,4
2022-10-14T05:31:22.296Z,0
2022-10-14T05:32:23.416Z,4
2022-10-14T05:33:22.824Z,4
2022-10-14T05:34:22.808Z,4
2022-10-14T05:36:00.946Z,8
2022-10-14T05:36:22.853Z,12
2022-10-14T05:37:22.916Z,8
2022-10-14T05:38:22.738Z,12
2022-10-14T05:39:22.504Z,12
2022-10-14T05:40:22.665Z,12
2022-10-14T05:41:22.797Z,12
2022-10-14T05:42:23.301Z,16
2022-10-14T05:43:22.478Z,16
2022-10-14T05:44:22.749Z,12
2022-10-14T05:45:23.026Z,16
2022-10-14T05:46:22.783Z,16
2022-10-14T05:47:22.819Z,20
2022-10-14T05:48:23.111Z,16
2022-10-14T05:49:22.856Z,20
2022-10-14T05:50:23.128Z,20
2022-10-14T05:51:23.136Z,24
2022-10-14T05:52:23.466Z,28
2022-10-14T05:53:22.978Z,36
2022-10-14T05:54:23.193Z,36
2022-10-14T05:55:23.215Z,44
2022-10-14T05:56:23.218Z,48
2022-10-14T05:57:22.986Z,60
2022-10-14T05:58:22.995Z,60
2022-10-14T05:59:22.770Z,68
2022-10-14T06:00:28.277Z,76
2022-10-14T06:01:22.553Z,80
2022-10-14T06:02:23.994Z,88
2022-10-14T06:03:23.554Z,92
2022-10-14T06:04:23.400Z,96
2022-10-14T06:05:23.423Z,104
2022-10-14T06:06:29.049Z,104
2022-10-14T06:07:23.191Z,108
2022-10-14T06:08:22.936Z,108
2022-10-14T06:09:23.235Z,108
2022-10-14T06:10:22.717Z,112
2022-10-14T06:11:23.512Z,116
2022-10-14T06:12:24.013Z,120
2022-10-14T06:13:23.283Z,136
2022-10-14T06:14:23.055Z,144
2022-10-14T06:15:23.589Z,152
2022-10-14T06:16:23.086Z,156
2022-10-14T06:17:24.695Z,164
2022-10-14T06:18:23.121Z,172
2022-10-14T06:19:23.166Z,188
2022-10-14T06:20:23.695Z,208
2022-10-14T06:21:23.464Z,220
2022-10-14T06:22:24.824Z,220
2022-10-14T06:23:23.581Z,212
2022-10-14T06:24:23.249Z,200
2022-10-14T06:25:23.530Z,200
2022-10-14T06:26:23.779Z,216
2022-10-14T06:27:23.292Z,236
2022-10-14T06:28:23.656Z,248
2022-10-14T06:29:23.885Z,252
2022-10-14T06:30:23.352Z,248
2022-10-14T06:31:23.614Z,256
2022-10-14T06:32:25.109Z,268
2022-10-14T06:33:23.408Z,276
2022-10-14T06:34:23.675Z,276
2022-10-14T06:35:23.726Z,252
2022-10-14T06:36:23.992Z,228
2022-10-14T06:37:24.027Z,216
2022-10-14T06:38:23.758Z,192
2022-10-14T06:39:23.514Z,160
2022-10-14T06:40:23.810Z,152
2022-10-14T06:41:24.097Z,144
2022-10-14T06:42:23.569Z,160
2022-10-14T06:43:23.840Z,180
2022-10-14T06:44:23.879Z,176
2022-10-14T06:45:23.628Z,168
2022-10-14T06:46:23.910Z,172
2022-10-14T06:47:23.916Z,184
2022-10-14T06:48:23.684Z,212
2022-10-14T06:49:23.958Z,244
2022-10-14T06:50:23.989Z,264
2022-10-14T06:51:24.029Z,272
2022-10-14T06:52:24.927Z,276
2022-10-14T06:53:24.051Z,284
2022-10-14T06:54:24.063Z,296
2022-10-14T06:55:24.327Z,308
2022-10-14T06:56:24.358Z,344
2022-10-14T06:57:24.382Z,396
2022-10-14T06:58:23.872Z,432
2022-10-14T06:59:23.892Z,448
2022-10-14T07:00:23.985Z,464
2022-10-14T07:01:24.662Z,496
2022-10-14T07:02:25.725Z,532
2022-10-14T07:03:24.239Z,524
2022-10-14T07:04:24.244Z,484
2022-10-14T07:05:24.517Z,440
2022-10-14T07:06:24.286Z,408
2022-10-14T07:07:24.566Z,376
2022-10-14T07:08:24.079Z,340
2022-10-14T07:09:24.620Z,324
2022-10-14T07:10:24.144Z,336
2022-10-14T07:11:24.373Z,368
2022-10-14T07:12:25.654Z,448
2022-10-14T07:13:24.785Z,540
2022-10-14T07:14:24.691Z,600
2022-10-14T07:15:24.459Z,636
2022-10-14T07:16:24.463Z,664
2022-10-14T07:17:25.891Z,688
2022-10-14T07:18:24.498Z,692
2022-10-14T07:19:24.581Z,684
2022-10-14T07:20:24.547Z,684
2022-10-14T07:21:24.555Z,680
2022-10-14T07:22:26.022Z,672
2022-10-14T07:23:24.580Z,660
2022-10-14T07:24:24.997Z,648
2022-10-14T07:25:24.933Z,640
2022-10-14T07:26:24.678Z,672
2022-10-14T07:27:25.835Z,712
2022-10-14T07:28:25.221Z,784
2022-10-14T07:29:24.732Z,820
2022-10-14T07:30:25.110Z,800
2022-10-14T07:31:25.002Z,808
2022-10-14T07:32:25.018Z,844
2022-10-14T07:33:25.158Z,856
2022-10-14T07:34:25.058Z,832
2022-10-14T07:35:24.820Z,788
2022-10-14T07:36:29.433Z,776
2022-10-14T07:37:25.762Z,800
2022-10-14T07:38:24.889Z,848
2022-10-14T07:39:25.183Z,928
2022-10-14T07:40:24.744Z,996
2022-10-14T07:41:24.973Z,1032
2022-10-14T07:42:24.953Z,1124
2022-10-14T07:43:25.231Z,1144
2022-10-14T07:44:30.054Z,984
2022-10-14T07:45:25.442Z,856
2022-10-14T07:46:24.923Z,820
2022-10-14T07:47:26.342Z,776
2022-10-14T07:48:59.904Z,648
2022-10-14T07:49:25.440Z,628
2022-10-14T07:50:25.021Z,612
2022-10-14T07:51:25.141Z,640
2022-10-14T07:52:25.395Z,644
2022-10-14T07:53:25.201Z,676
2022-10-14T07:54:24.919Z,752
2022-10-14T07:55:25.553Z,832
2022-10-14T07:56:25.529Z,876
2022-10-14T07:57:26.846Z,860
2022-10-14T07:58:25.551Z,828
2022-10-14T07:59:25.013Z,808
2022-10-14T08:00:25.366Z,820
2022-10-14T08:01:25.829Z,796
2022-10-14T08:02:25.345Z,756
2022-10-14T08:03:25.595Z,744
2022-10-14T08:04:25.614Z,764
2022-10-14T08:05:44.177Z,784
2022-10-14T08:06:25.237Z,792
2022-10-14T08:07:26.360Z,828
2022-10-14T08:08:25.486Z,884
2022-10-14T08:10:25.835Z,1048
2022-10-14T08:11:25.541Z,1128
2022-10-14T08:12:26.886Z,1240
2022-10-14T08:13:25.821Z,1420
2022-10-14T08:14:25.819Z,1596
2022-10-14T08:15:25.824Z,1732
2022-10-14T08:16:25.597Z,1736
2022-10-14T08:17:25.663Z,1660
2022-10-14T08:18:25.625Z,1468
2022-10-14T08:19:25.391Z,1340
2022-10-14T08:20:25.791Z,1176
2022-10-14T08:21:25.969Z,1192
2022-10-14T08:22:26.775Z,1284
2022-10-14T08:23:26.552Z,1432
2022-10-14T08:24:25.482Z,1456
2022-10-14T08:25:25.755Z,1412
2022-10-14T08:26:25.776Z,1580
2022-10-14T08:27:26.080Z,1688
2022-10-14T08:28:25.783Z,1836
2022-10-14T08:29:26.119Z,1496
2022-10-14T08:30:26.195Z,1560
2022-10-14T08:31:25.900Z,1532
2022-10-14T08:32:27.340Z,1624
2022-10-14T08:33:26.205Z,1704
2022-10-14T08:34:25.671Z,1728
2022-10-14T08:35:25.951Z,1756
2022-10-14T08:36:26.252Z,1760
2022-10-14T08:37:25.990Z,1704
2022-10-14T08:38:25.782Z,1644
2022-10-14T08:39:26.288Z,1616
2022-10-14T08:40:26.172Z,1672
2022-10-14T08:41:26.081Z,1680
2022-10-14T08:42:27.354Z,1700
2022-10-14T08:43:26.135Z,1684
2022-10-14T08:44:25.902Z,1676
2022-10-14T08:45:26.430Z,1720
2022-10-14T08:46:26.416Z,1836
2022-10-14T08:47:26.460Z,1908
2022-10-14T08:48:26.217Z,1848
2022-10-14T08:49:26.240Z,1808
2022-10-14T08:50:26.238Z,1680
2022-10-14T08:51:26.252Z,1556
2022-10-14T08:52:27.483Z,1544
2022-10-14T08:53:26.295Z,1584
2022-10-14T08:54:25.802Z,1612
2022-10-14T08:55:26.339Z,1668
2022-10-14T08:56:26.360Z,1728
2022-10-14T08:57:26.634Z,1764
2022-10-14T08:59:26.709Z,1716
2022-10-14T09:00:26.698Z,1636
2022-10-14T09:01:26.493Z,1596
2022-10-14T09:02:27.655Z,1592
2022-10-14T09:03:26.486Z,1636
2022-10-14T09:04:26.791Z,1660
2022-10-14T09:05:26.830Z,1796
2022-10-14T09:06:26.547Z,1892
2022-10-14T09:07:26.862Z,1948
2022-10-14T09:08:26.597Z,1924
2022-10-14T09:09:26.875Z,1960
2022-10-14T09:10:26.616Z,2144
2022-10-14T09:11:27.761Z,2240
2022-10-14T09:12:27.711Z,2284
2022-10-14T09:13:26.956Z,2400
2022-10-14T09:14:26.693Z,2564
2022-10-14T09:15:26.742Z,2716
2022-10-14T09:16:27.009Z,2720
2022-10-14T09:17:27.050Z,2660
2022-10-14T09:18:26.848Z,2424
2022-10-14T09:19:26.800Z,2304
2022-10-14T09:20:27.128Z,2196
2022-10-14T09:22:02.842Z,2132
2022-10-14T09:22:28.126Z,2220
2022-10-14T09:23:26.582Z,2236
2022-10-14T09:24:27.147Z,2236
2022-10-14T09:25:27.171Z,2144
2022-10-14T09:26:26.928Z,2144
2022-10-14T09:27:28.301Z,2116
2022-10-14T09:28:26.944Z,2084
2022-10-14T09:29:27.255Z,2096
2022-10-14T09:30:26.787Z,2140
2022-10-14T09:31:27.320Z,2172
2022-10-14T09:32:28.336Z,2204
2022-10-14T09:33:26.849Z,2192
2022-10-14T09:34:27.697Z,2136
2022-10-14T09:35:26.867Z,2044
2022-10-14T09:36:27.395Z,1924
2022-10-14T09:37:28.636Z,1860
2022-10-14T09:38:27.167Z,1812
2022-10-14T09:39:27.449Z,1752
2022-10-14T09:40:26.962Z,1708
2022-10-14T09:41:26.980Z,1600
2022-10-14T09:42:27.249Z,1528
2022-10-14T09:43:27.136Z,1504
2022-10-14T09:44:27.301Z,1484
2022-10-14T09:45:27.064Z,1448
2022-10-14T09:46:27.330Z,1376
2022-10-14T09:47:28.076Z,1316
2022-10-14T09:48:27.392Z,1208
2022-10-14T09:49:27.663Z,1116
2022-10-14T09:50:27.410Z,1060
2022-10-14T09:51:27.433Z,1048
2022-10-14T09:52:27.454Z,1052
2022-10-14T09:53:27.752Z,1120
2022-10-14T09:54:27.746Z,1148
2022-10-14T09:55:27.761Z,1236
2022-10-14T09:56:27.960Z,1272
2022-10-14T09:57:28.718Z,1352
2022-10-14T09:58:27.601Z,1504
2022-10-14T09:59:27.837Z,1524
2022-10-14T10:00:27.614Z,1576
2022-10-14T10:01:27.629Z,1632
2022-10-14T10:02:27.649Z,1620
2022-10-14T10:03:27.700Z,1672
2022-10-14T10:04:27.704Z,1852
2022-10-14T10:05:28.026Z,1900
2022-10-14T10:06:27.809Z,1948
2022-10-14T10:07:29.327Z,1584
2022-10-14T10:08:27.861Z,1488
2022-10-14T10:09:28.159Z,1780
2022-10-14T10:10:27.915Z,2204
2022-10-14T10:11:27.350Z,2260
2022-10-14T10:12:28.145Z,2336
2022-10-14T10:13:27.939Z,2232
2022-10-14T10:14:28.145Z,2104
2022-10-14T10:15:28.154Z,1856
2022-10-14T10:16:27.924Z,1800
2022-10-14T10:17:28.543Z,2064
2022-10-14T10:18:27.967Z,2228
2022-10-14T10:19:28.252Z,2212
2022-10-14T10:20:28.354Z,2244
2022-10-14T10:21:28.297Z,2152
2022-10-14T10:22:28.326Z,1972
2022-10-14T10:23:28.353Z,2088
2022-10-14T10:24:33.439Z,2088
2022-10-14T10:25:28.382Z,2224
2022-10-14T10:26:27.863Z,2208
2022-10-14T10:27:28.910Z,2080
2022-10-14T10:28:28.645Z,1828
2022-10-14T10:29:28.158Z,1660
2022-10-14T10:30:28.204Z,1680
2022-10-14T10:31:28.680Z,1720
2022-10-14T10:32:29.007Z,1744
2022-10-14T10:33:28.260Z,1772
2022-10-14T10:34:28.530Z,1708
2022-10-14T10:35:28.051Z,1516
2022-10-14T10:36:28.977Z,1428
2022-10-14T10:37:29.415Z,1316
2022-10-14T10:38:28.602Z,1160
2022-10-14T10:39:28.373Z,1076
2022-10-14T10:40:28.379Z,1104
2022-10-14T10:41:28.428Z,1012
2022-10-14T10:42:29.743Z,996
2022-10-14T10:43:28.710Z,1040
2022-10-14T10:44:28.199Z,1148
2022-10-14T10:45:28.619Z,1244
2022-10-14T10:46:28.500Z,1300
2022-10-14T10:47:28.798Z,1164
2022-10-14T10:48:28.285Z,1136
2022-10-14T10:49:28.563Z,1212
2022-10-14T10:50:28.334Z,1580
2022-10-14T10:51:28.370Z,1756
2022-10-14T10:52:29.890Z,1532
2022-10-14T10:53:28.942Z,1352
2022-10-14T10:54:28.665Z,1552
2022-10-14T10:55:28.431Z,1604
2022-10-14T10:56:28.700Z,1456
2022-10-14T10:57:29.428Z,1356
2022-10-14T10:58:29.004Z,1196
2022-10-14T10:59:29.032Z,1092
2022-10-14T11:00:28.875Z,1152
2022-10-14T11:01:29.294Z,1216
2022-10-14T11:02:29.506Z,1364
2022-10-14T11:03:29.106Z,1352
2022-10-14T11:04:28.605Z,1256
2022-10-14T11:05:28.371Z,1372
2022-10-14T11:06:28.902Z,1532
2022-10-14T11:07:35.220Z,1624
2022-10-14T11:08:29.420Z,1692
2022-10-14T11:09:29.006Z,1748
2022-10-14T11:10:28.729Z,1792
2022-10-14T11:11:28.749Z,1780
2022-10-14T11:12:30.051Z,1768
2022-10-14T11:13:35.493Z,1732
2022-10-14T11:14:29.316Z,1700
2022-10-14T11:15:29.345Z,1660
2022-10-14T11:16:29.116Z,1624
2022-10-14T11:17:30.671Z,1576
2022-10-14T11:18:29.142Z,1532
2022-10-14T11:19:29.427Z,1496
2022-10-14T11:20:29.455Z,1456
2022-10-14T11:21:29.465Z,1432
2022-10-14T11:22:29.925Z,1460
2022-10-14T11:23:29.491Z,1476
2022-10-14T11:24:29.543Z,1464
2022-10-14T11:25:29.558Z,1436
2022-10-14T11:26:29.589Z,1400
2022-10-14T11:27:33.091Z,1356
2022-10-14T11:28:29.719Z,1296
2022-10-14T11:29:29.633Z,1316
2022-10-14T11:30:29.647Z,1376
2022-10-14T11:31:29.400Z,1380
2022-10-14T11:32:29.429Z,1292
2022-10-14T11:33:29.463Z,1332
2022-10-14T11:34:29.203Z,1372
2022-10-14T11:35:30.004Z,1508
2022-10-14T11:36:29.504Z,1580
2022-10-14T11:37:30.054Z,1604
2022-10-14T11:38:30.015Z,1600
2022-10-14T11:39:33.360Z,1676
2022-10-14T11:40:29.847Z,1728
2022-10-14T11:41:29.883Z,1740
2022-10-14T11:42:30.295Z,1708
2022-10-14T11:43:29.693Z,1748
2022-10-14T11:44:29.920Z,1844
2022-10-14T11:45:29.485Z,1888
2022-10-14T11:46:29.438Z,1668
2022-10-14T11:47:30.133Z,1392
2022-10-14T11:48:29.762Z,1260
2022-10-14T11:49:30.022Z,1420
2022-10-14T11:50:30.043Z,1416
2022-10-14T11:51:34.749Z,1424
2022-10-14T11:52:30.099Z,1308
2022-10-14T11:53:30.090Z,1344
2022-10-14T11:54:29.868Z,1580
2022-10-14T11:55:29.934Z,1924
2022-10-14T11:56:30.198Z,1832
2022-10-14T11:57:30.378Z,1440
2022-10-14T11:58:29.934Z,1292
2022-10-14T11:59:30.213Z,1348
2022-10-14T12:00:29.774Z,1392
2022-10-14T12:01:32.828Z,1908
2022-10-14T12:02:31.622Z,2064
2022-10-14T12:03:30.036Z,2712
2022-10-14T12:04:30.071Z,2656
2022-10-14T12:05:30.070Z,2456
2022-10-14T12:06:30.364Z,2416
2022-10-14T12:07:30.122Z,2532
2022-10-14T12:08:35.843Z,2512
2022-10-14T12:09:30.466Z,2348
2022-10-14T12:10:30.214Z,1976
2022-10-14T12:11:30.243Z,1908
2022-10-14T12:12:30.495Z,1860
2022-10-14T12:13:30.262Z,1788
2022-10-14T12:14:30.272Z,1776
2022-10-14T12:16:30.328Z,1508
2022-10-14T12:17:30.873Z,1568
2022-10-14T12:18:30.593Z,1948
2022-10-14T12:19:30.377Z,1788
2022-10-14T12:20:30.133Z,1224
2022-10-14T12:21:30.415Z,1192
2022-10-14T12:22:30.930Z,1172
2022-10-14T12:23:30.895Z,1148
2022-10-14T12:24:30.202Z,1116
2022-10-14T12:25:30.746Z,1100
2022-10-14T12:26:30.487Z,1160
2022-10-14T12:27:31.359Z,1116
2022-10-14T12:28:30.662Z,1200
2022-10-14T12:29:30.843Z,1160
2022-10-14T12:30:30.861Z,1224
2022-10-14T12:31:30.853Z,1192
2022-10-14T12:32:31.727Z,1180
2022-10-14T12:33:30.664Z,1180
2022-10-14T12:34:30.911Z,1184
2022-10-14T12:35:30.171Z,1200
2022-10-14T12:36:30.683Z,1204
2022-10-14T12:37:37.321Z,1168
2022-10-14T12:38:30.474Z,1060
2022-10-14T12:39:30.503Z,1200
2022-10-14T12:40:30.515Z,1200
2022-10-14T12:41:31.050Z,1200
2022-10-14T12:42:31.056Z,1228
2022-10-14T12:43:30.915Z,1232
2022-10-14T12:44:31.138Z,1216
2022-10-14T12:45:31.361Z,1132
2022-10-14T12:46:30.898Z,1180
2022-10-14T12:47:31.594Z,1188
2022-10-14T12:48:31.194Z,1200
2022-10-14T12:49:30.973Z,1224
2022-10-14T12:50:31.240Z,1248
2022-10-14T12:51:31.007Z,1280
2022-10-14T12:52:31.004Z,1296
2022-10-14T12:53:31.044Z,1308
2022-10-14T12:54:31.333Z,1316
2022-10-14T12:55:31.082Z,1324
2022-10-14T12:56:31.347Z,1332
2022-10-14T12:57:31.608Z,1308
2022-10-14T12:58:31.396Z,1144
2022-10-14T12:59:31.242Z,1032
2022-10-14T13:00:30.915Z,900
2022-10-14T13:01:36.474Z,1132
2022-10-14T13:02:31.579Z,1224
2022-10-14T13:03:32.294Z,1880
2022-10-14T13:04:32.367Z,1688
2022-10-14T13:05:31.568Z,1512
2022-10-14T13:06:31.578Z,1412
2022-10-14T13:07:48.705Z,1448
2022-10-14T13:08:31.098Z,1696
2022-10-14T13:09:31.371Z,1892
2022-10-14T13:10:31.636Z,1920
2022-10-14T13:11:31.130Z,1824
2022-10-14T13:12:31.676Z,1912
2022-10-14T13:13:34.553Z,1880
2022-10-14T13:14:31.458Z,1772
2022-10-14T13:15:31.295Z,1976
2022-10-14T13:16:31.510Z,1912
2022-10-14T13:17:32.277Z,1876
2022-10-14T13:18:31.540Z,1768
2022-10-14T13:19:31.554Z,2276
2022-10-14T13:20:31.857Z,2652
2022-10-14T13:21:31.627Z,2452
2022-10-14T13:22:38.745Z,2304
2022-10-14T13:23:31.775Z,2040
2022-10-14T13:24:31.786Z,1920
2022-10-14T13:25:31.674Z,1868
2022-10-14T13:26:31.704Z,1888
2022-10-14T13:27:32.070Z,1832
2022-10-14T13:28:31.734Z,1744
2022-10-14T13:29:31.768Z,1696
2022-10-14T13:30:38.246Z,1796
2022-10-14T13:31:31.572Z,1860
2022-10-14T13:32:38.229Z,1940
2022-10-14T13:33:32.085Z,1992
2022-10-14T13:34:32.120Z,2056
2022-10-14T13:35:31.889Z,2040
2022-10-14T13:36:31.902Z,1952
2022-10-14T13:37:31.947Z,1848
2022-10-14T13:38:31.685Z,1808
2022-10-14T13:39:32.221Z,1772
2022-10-14T13:40:32.282Z,1760
2022-10-14T13:41:38.235Z,1752
2022-10-14T13:42:32.451Z,1728
2022-10-14T13:43:32.043Z,1696
2022-10-14T13:44:32.336Z,1640
2022-10-14T13:45:32.083Z,1596
2022-10-14T13:46:32.184Z,1636
2022-10-14T13:47:32.447Z,1720
2022-10-14T13:48:32.178Z,1752
2022-10-14T13:49:32.188Z,1704
2022-10-14T13:50:32.462Z,1636
2022-10-14T13:51:43.703Z,1576
2022-10-14T13:52:32.494Z,1520
2022-10-14T13:53:32.287Z,1460
2022-10-14T13:54:32.527Z,1352
2022-10-14T13:55:32.554Z,1260
2022-10-14T13:56:32.607Z,1256
2022-10-14T13:58:17.359Z,1352
2022-10-14T14:00:43.973Z,1300
2022-10-14T14:00:53.565Z,1288
2022-10-14T14:01:54.266Z,1196
2022-10-14T14:03:05.770Z,1148
2022-10-14T14:03:53.655Z,1148